Terminal Aerodrome Forecast
Issued by NWS

Home | Current Version | Previous Version | Text Only | Print | Product List | Glossary On
Versions: 1 2 3 4 5 6 7 8 9 10 11 12 13 14 15 16 17
000
FTUS46 KMFR 220500 RRA
TAFRBG
TAF
KRBG 220543Z 2206/2306 VRB03KT P6SM -SHRA SCT060 OVC080
     FM221300 17004KT P6SM -SHRA SCT040 BKN050 OVC080
     FM221800 18008KT P6SM -SHRA SCT040 BKN050 OVC080
     FM222100 18010G15KT P6SM -RA BKN040 OVC060=

USA.gov is the U.S. government's official web portal to all federal, state and local government web resources and services.